sensor_id;sensor_type;location;lat;lon;timestamp;P1;durP1;ratioP1;P2;durP2;ratioP2
3867;SDS011;1949;48.152;11.528;2024-01-11T00:00:48;36.87;;;10.87;;
3867;SDS011;1949;48.152;11.528;2024-01-11T00:03:14;33.10;;;11.20;;
3867;SDS011;1949;48.152;11.528;2024-01-11T00:05:42;41.47;;;11.27;;
3867;SDS011;1949;48.152;11.528;2024-01-11T00:08:08;37.30;;;11.23;;
3867;SDS011;1949;48.152;11.528;2024-01-11T00:10:35;28.30;;;10.03;;
3867;SDS011;1949;48.152;11.528;2024-01-11T00:13:01;32.67;;;10.60;;
3867;SDS011;1949;48.152;11.528;2024-01-11T00:15:28;28.20;;;9.70;;
3867;SDS011;1949;48.152;11.528;2024-01-11T00:17:54;35.03;;;11.00;;
3867;SDS011;1949;48.152;11.528;2024-01-11T00:20:19;40.30;;;11.80;;
3867;SDS011;1949;48.152;11.528;2024-01-11T00:22:45;35.53;;;10.77;;
3867;SDS011;1949;48.152;11.528;2024-01-11T00:25:12;29.87;;;10.60;;
3867;SDS011;1949;48.152;11.528;2024-01-11T00:27:38;43.93;;;12.77;;
3867;SDS011;1949;48.152;11.528;2024-01-11T00:30:04;25.53;;;9.77;;
3867;SDS011;1949;48.152;11.528;2024-01-11T00:32:30;36.97;;;9.83;;
3867;SDS011;1949;48.152;11.528;2024-01-11T00:34:57;33.87;;;11.30;;
3867;SDS011;1949;48.152;11.528;2024-01-11T00:37:23;36.80;;;10.63;;
3867;SDS011;1949;48.152;11.528;2024-01-11T00:39:52;35.20;;;11.27;;
3867;SDS011;1949;48.152;11.528;2024-01-11T00:42:17;35.10;;;10.67;;
3867;SDS011;1949;48.152;11.528;2024-01-11T00:44:44;35.83;;;12.00;;
3867;SDS011;1949;48.152;11.528;2024-01-11T00:47:10;35.53;;;10.67;;
3867;SDS011;1949;48.152;11.528;2024-01-11T00:49:37;34.27;;;10.60;;
3867;SDS011;1949;48.152;11.528;2024-01-11T00:52:04;39.77;;;11.50;;
3867;SDS011;1949;48.152;11.528;2024-01-11T00:54:30;38.17;;;11.67;;
3867;SDS011;1949;48.152;11.528;2024-01-11T00:56:56;42.07;;;12.90;;
3867;SDS011;1949;48.152;11.528;2024-01-11T00:59:22;47.47;;;13.70;;
3867;SDS011;1949;48.152;11.528;2024-01-11T01:01:48;42.90;;;12.37;;
3867;SDS011;1949;48.152;11.528;2024-01-11T01:04:15;39.10;;;11.97;;
3867;SDS011;1949;48.152;11.528;2024-01-11T01:06:41;28.17;;;9.97;;
3867;SDS011;1949;48.152;11.528;2024-01-11T01:09:08;44.43;;;11.30;;
3867;SDS011;1949;48.152;11.528;2024-01-11T01:11:35;31.10;;;10.30;;
3867;SDS011;1949;48.152;11.528;2024-01-11T01:14:00;38.53;;;9.20;;
3867;SDS011;1949;48.152;11.528;2024-01-11T01:16:27;27.90;;;9.90;;
3867;SDS011;1949;48.152;11.528;2024-01-11T01:18:55;32.80;;;9.70;;
3867;SDS011;1949;48.152;11.528;2024-01-11T01:21:21;32.60;;;10.67;;
3867;SDS011;1949;48.152;11.528;2024-01-11T01:23:46;40.53;;;10.90;;
3867;SDS011;1949;48.152;11.528;2024-01-11T01:26:13;38.17;;;11.00;;
3867;SDS011;1949;48.152;11.528;2024-01-11T01:28:39;33.17;;;11.43;;
3867;SDS011;1949;48.152;11.528;2024-01-11T01:31:05;32.80;;;9.27;;
3867;SDS011;1949;48.152;11.528;2024-01-11T01:33:33;30.00;;;10.23;;
3867;SDS011;1949;48.152;11.528;2024-01-11T01:35:59;28.30;;;9.60;;
3867;SDS011;1949;48.152;11.528;2024-01-11T01:38:25;30.70;;;10.50;;
3867;SDS011;1949;48.152;11.528;2024-01-11T01:40:51;43.10;;;14.40;;
3867;SDS011;1949;48.152;11.528;2024-01-11T01:43:17;50.87;;;16.57;;
3867;SDS011;1949;48.152;11.528;2024-01-11T01:45:43;47.87;;;15.37;;
3867;SDS011;1949;48.152;11.528;2024-01-11T01:48:09;49.10;;;14.20;;
3867;SDS011;1949;48.152;11.528;2024-01-11T01:50:35;44.90;;;13.13;;
3867;SDS011;1949;48.152;11.528;2024-01-11T01:53:01;45.50;;;13.60;;
3867;SDS011;1949;48.152;11.528;2024-01-11T01:55:28;32.47;;;10.10;;
3867;SDS011;1949;48.152;11.528;2024-01-11T01:57:56;36.13;;;11.80;;
3867;SDS011;1949;48.152;11.528;2024-01-11T02:00:24;36.70;;;11.80;;
3867;SDS011;1949;48.152;11.528;2024-01-11T02:02:51;31.60;;;9.87;;
3867;SDS011;1949;48.152;11.528;2024-01-11T02:05:18;31.17;;;9.50;;
3867;SDS011;1949;48.152;11.528;2024-01-11T02:07:45;43.07;;;10.93;;
3867;SDS011;1949;48.152;11.528;2024-01-11T02:10:11;34.30;;;10.20;;
3867;SDS011;1949;48.152;11.528;2024-01-11T02:12:37;27.67;;;9.40;;
3867;SDS011;1949;48.152;11.528;2024-01-11T02:15:04;29.47;;;9.67;;
3867;SDS011;1949;48.152;11.528;2024-01-11T02:17:30;37.27;;;11.90;;
3867;SDS011;1949;48.152;11.528;2024-01-11T02:19:56;33.60;;;11.27;;
3867;SDS011;1949;48.152;11.528;2024-01-11T02:22:32;44.60;;;12.10;;
3867;SDS011;1949;48.152;11.528;2024-01-11T02:25:00;33.10;;;10.40;;
3867;SDS011;1949;48.152;11.528;2024-01-11T02:27:28;71.33;;;12.30;;
3867;SDS011;1949;48.152;11.528;2024-01-11T02:29:54;34.83;;;11.00;;
3867;SDS011;1949;48.152;11.528;2024-01-11T02:32:20;33.00;;;11.30;;
3867;SDS011;1949;48.152;11.528;2024-01-11T02:34:47;34.50;;;11.23;;
3867;SDS011;1949;48.152;11.528;2024-01-11T02:37:13;29.30;;;10.87;;
3867;SDS011;1949;48.152;11.528;2024-01-11T02:39:40;32.70;;;10.30;;
3867;SDS011;1949;48.152;11.528;2024-01-11T02:42:08;41.13;;;11.53;;
3867;SDS011;1949;48.152;11.528;2024-01-11T02:44:34;29.43;;;10.23;;
3867;SDS011;1949;48.152;11.528;2024-01-11T02:47:02;30.90;;;10.47;;
3867;SDS011;1949;48.152;11.528;2024-01-11T02:49:27;33.90;;;10.30;;
3867;SDS011;1949;48.152;11.528;2024-01-11T02:51:53;30.93;;;9.30;;
3867;SDS011;1949;48.152;11.528;2024-01-11T02:54:19;33.30;;;11.50;;
3867;SDS011;1949;48.152;11.528;2024-01-11T02:56:44;25.23;;;8.70;;
3867;SDS011;1949;48.152;11.528;2024-01-11T02:59:10;27.17;;;8.37;;
3867;SDS011;1949;48.152;11.528;2024-01-11T03:01:36;27.10;;;8.70;;
3867;SDS011;1949;48.152;11.528;2024-01-11T03:04:02;29.23;;;8.70;;
3867;SDS011;1949;48.152;11.528;2024-01-11T03:06:29;28.33;;;7.87;;
3867;SDS011;1949;48.152;11.528;2024-01-11T03:08:57;24.17;;;9.60;;
3867;SDS011;1949;48.152;11.528;2024-01-11T03:11:23;35.60;;;10.07;;
3867;SDS011;1949;48.152;11.528;2024-01-11T03:13:49;31.33;;;10.47;;
3867;SDS011;1949;48.152;11.528;2024-01-11T03:16:20;25.67;;;9.00;;
3867;SDS011;1949;48.152;11.528;2024-01-11T03:18:46;26.83;;;9.90;;
3867;SDS011;1949;48.152;11.528;2024-01-11T03:21:13;34.27;;;8.47;;
3867;SDS011;1949;48.152;11.528;2024-01-11T03:26:12;27.97;;;10.03;;
3867;SDS011;1949;48.152;11.528;2024-01-11T03:28:41;23.00;;;8.00;;
3867;SDS011;1949;48.152;11.528;2024-01-11T03:31:09;22.07;;;9.00;;
3867;SDS011;1949;48.152;11.528;2024-01-11T03:33:36;33.73;;;9.47;;
3867;SDS011;1949;48.152;11.528;2024-01-11T03:36:08;22.03;;;8.43;;
3867;SDS011;1949;48.152;11.528;2024-01-11T03:38:35;25.50;;;9.20;;
3867;SDS011;1949;48.152;11.528;2024-01-11T03:41:01;29.33;;;10.67;;
3867;SDS011;1949;48.152;11.528;2024-01-11T03:43:28;23.50;;;8.17;;
3867;SDS011;1949;48.152;11.528;2024-01-11T03:45:55;25.40;;;8.67;;
3867;SDS011;1949;48.152;11.528;2024-01-11T03:48:21;32.97;;;9.03;;
3867;SDS011;1949;48.152;11.528;2024-01-11T03:50:47;34.50;;;10.80;;
3867;SDS011;1949;48.152;11.528;2024-01-11T03:53:13;30.87;;;11.03;;
3867;SDS011;1949;48.152;11.528;2024-01-11T03:58:07;76.77;;;23.23;;
3867;SDS011;1949;48.152;11.528;2024-01-11T04:00:35;73.60;;;24.07;;
3867;SDS011;1949;48.152;11.528;2024-01-11T04:03:01;71.77;;;24.80;;
3867;SDS011;1949;48.152;11.528;2024-01-11T04:05:27;86.47;;;29.50;;
3867;SDS011;1949;48.152;11.528;2024-01-11T04:07:55;72.17;;;20.63;;
3867;SDS011;1949;48.152;11.528;2024-01-11T04:10:24;36.70;;;13.20;;
3867;SDS011;1949;48.152;11.528;2024-01-11T04:12:50;40.17;;;11.53;;
3867;SDS011;1949;48.152;11.528;2024-01-11T04:15:17;31.77;;;9.50;;
3867;SDS011;1949;48.152;11.528;2024-01-11T04:17:45;36.63;;;12.97;;
3867;SDS011;1949;48.152;11.528;2024-01-11T04:20:13;31.50;;;10.60;;
3867;SDS011;1949;48.152;11.528;2024-01-11T04:22:39;32.43;;;10.77;;
3867;SDS011;1949;48.152;11.528;2024-01-11T04:25:05;28.97;;;10.77;;
3867;SDS011;1949;48.152;11.528;2024-01-11T04:27:34;36.27;;;12.20;;
3867;SDS011;1949;48.152;11.528;2024-01-11T04:30:01;37.87;;;12.50;;
3867;SDS011;1949;48.152;11.528;2024-01-11T04:32:27;44.33;;;11.40;;
3867;SDS011;1949;48.152;11.528;2024-01-11T04:34:54;33.43;;;10.80;;
3867;SDS011;1949;48.152;11.528;2024-01-11T04:37:23;35.87;;;11.83;;
3867;SDS011;1949;48.152;11.528;2024-01-11T04:39:56;42.60;;;12.87;;
3867;SDS011;1949;48.152;11.528;2024-01-11T04:45:01;29.07;;;11.40;;
3867;SDS011;1949;48.152;11.528;2024-01-11T04:47:30;33.43;;;12.90;;
3867;SDS011;1949;48.152;11.528;2024-01-11T04:49:56;32.27;;;12.97;;
3867;SDS011;1949;48.152;11.528;2024-01-11T04:52:23;37.90;;;12.43;;
3867;SDS011;1949;48.152;11.528;2024-01-11T04:54:50;29.23;;;10.40;;
3867;SDS011;1949;48.152;11.528;2024-01-11T04:57:21;29.47;;;10.83;;
3867;SDS011;1949;48.152;11.528;2024-01-11T04:59:47;36.00;;;12.57;;
3867;SDS011;1949;48.152;11.528;2024-01-11T05:02:13;34.20;;;12.30;;
3867;SDS011;1949;48.152;11.528;2024-01-11T05:07:09;30.73;;;11.87;;
3867;SDS011;1949;48.152;11.528;2024-01-11T05:12:05;35.53;;;12.13;;
3867;SDS011;1949;48.152;11.528;2024-01-11T05:14:31;35.57;;;12.53;;
3867;SDS011;1949;48.152;11.528;2024-01-11T05:16:56;30.77;;;11.70;;
3867;SDS011;1949;48.152;11.528;2024-01-11T05:19:23;32.13;;;10.97;;
3867;SDS011;1949;48.152;11.528;2024-01-11T05:21:51;31.63;;;12.70;;
3867;SDS011;1949;48.152;11.528;2024-01-11T05:24:20;28.77;;;10.90;;
3867;SDS011;1949;48.152;11.528;2024-01-11T05:26:46;27.03;;;10.63;;
3867;SDS011;1949;48.152;11.528;2024-01-11T05:29:14;42.37;;;12.03;;
3867;SDS011;1949;48.152;11.528;2024-01-11T05:31:40;27.03;;;10.83;;
3867;SDS011;1949;48.152;11.528;2024-01-11T05:34:06;33.47;;;12.00;;
3867;SDS011;1949;48.152;11.528;2024-01-11T05:36:32;33.53;;;10.83;;
3867;SDS011;1949;48.152;11.528;2024-01-11T05:41:32;42.30;;;12.87;;
3867;SDS011;1949;48.152;11.528;2024-01-11T05:43:59;42.00;;;13.90;;
3867;SDS011;1949;48.152;11.528;2024-01-11T05:46:24;44.23;;;13.30;;
3867;SDS011;1949;48.152;11.528;2024-01-11T05:48:58;43.63;;;12.73;;
3867;SDS011;1949;48.152;11.528;2024-01-11T05:51:24;45.93;;;12.70;;
3867;SDS011;1949;48.152;11.528;2024-01-11T05:53:52;34.80;;;11.87;;
3867;SDS011;1949;48.152;11.528;2024-01-11T05:56:20;39.70;;;11.60;;
3867;SDS011;1949;48.152;11.528;2024-01-11T05:58:47;45.20;;;13.20;;
3867;SDS011;1949;48.152;11.528;2024-01-11T06:01:13;39.73;;;12.00;;
3867;SDS011;1949;48.152;11.528;2024-01-11T06:03:40;37.03;;;11.93;;
3867;SDS011;1949;48.152;11.528;2024-01-11T06:06:06;40.63;;;12.60;;
3867;SDS011;1949;48.152;11.528;2024-01-11T06:08:35;28.60;;;10.57;;
3867;SDS011;1949;48.152;11.528;2024-01-11T06:11:01;31.00;;;10.60;;
3867;SDS011;1949;48.152;11.528;2024-01-11T06:13:26;38.60;;;12.50;;
3867;SDS011;1949;48.152;11.528;2024-01-11T06:15:53;30.80;;;10.90;;
3867;SDS011;1949;48.152;11.528;2024-01-11T06:18:18;37.77;;;12.90;;
3867;SDS011;1949;48.152;11.528;2024-01-11T06:20:44;31.47;;;10.60;;
3867;SDS011;1949;48.152;11.528;2024-01-11T06:23:10;34.83;;;12.10;;
3867;SDS011;1949;48.152;11.528;2024-01-11T06:25:37;40.20;;;13.57;;
3867;SDS011;1949;48.152;11.528;2024-01-11T06:28:03;36.67;;;12.70;;
3867;SDS011;1949;48.152;11.528;2024-01-11T06:30:32;38.80;;;11.63;;
3867;SDS011;1949;48.152;11.528;2024-01-11T06:33:02;37.27;;;12.57;;
3867;SDS011;1949;48.152;11.528;2024-01-11T06:35:28;32.00;;;10.33;;
3867;SDS011;1949;48.152;11.528;2024-01-11T06:37:55;38.37;;;12.60;;
3867;SDS011;1949;48.152;11.528;2024-01-11T06:40:21;34.33;;;11.70;;
3867;SDS011;1949;48.152;11.528;2024-01-11T06:42:48;39.73;;;13.17;;
3867;SDS011;1949;48.152;11.528;2024-01-11T06:45:15;35.30;;;10.57;;
3867;SDS011;1949;48.152;11.528;2024-01-11T06:47:41;40.17;;;12.47;;
3867;SDS011;1949;48.152;11.528;2024-01-11T06:50:07;45.33;;;14.70;;
3867;SDS011;1949;48.152;11.528;2024-01-11T06:52:33;39.40;;;13.27;;
3867;SDS011;1949;48.152;11.528;2024-01-11T06:54:59;46.73;;;14.80;;
3867;SDS011;1949;48.152;11.528;2024-01-11T06:57:27;37.13;;;12.23;;
3867;SDS011;1949;48.152;11.528;2024-01-11T06:59:52;42.53;;;13.83;;
3867;SDS011;1949;48.152;11.528;2024-01-11T07:02:20;39.80;;;12.30;;
3867;SDS011;1949;48.152;11.528;2024-01-11T07:04:48;35.30;;;11.40;;
3867;SDS011;1949;48.152;11.528;2024-01-11T07:07:14;31.90;;;11.30;;
3867;SDS011;1949;48.152;11.528;2024-01-11T07:09:41;30.53;;;9.60;;
3867;SDS011;1949;48.152;11.528;2024-01-11T07:12:09;30.33;;;11.20;;
3867;SDS011;1949;48.152;11.528;2024-01-11T07:14:35;30.13;;;11.50;;
3867;SDS011;1949;48.152;11.528;2024-01-11T07:17:01;35.47;;;11.50;;
3867;SDS011;1949;48.152;11.528;2024-01-11T07:19:28;26.40;;;10.73;;
3867;SDS011;1949;48.152;11.528;2024-01-11T07:21:55;31.90;;;10.70;;
3867;SDS011;1949;48.152;11.528;2024-01-11T07:24:21;30.87;;;11.20;;
3867;SDS011;1949;48.152;11.528;2024-01-11T07:26:49;23.93;;;9.23;;
3867;SDS011;1949;48.152;11.528;2024-01-11T07:29:15;29.93;;;9.90;;
3867;SDS011;1949;48.152;11.528;2024-01-11T07:31:40;24.17;;;8.37;;
3867;SDS011;1949;48.152;11.528;2024-01-11T07:34:06;32.57;;;9.70;;
3867;SDS011;1949;48.152;11.528;2024-01-11T07:36:32;35.73;;;10.03;;
3867;SDS011;1949;48.152;11.528;2024-01-11T07:38:57;24.23;;;9.77;;
3867;SDS011;1949;48.152;11.528;2024-01-11T07:41:26;21.30;;;8.60;;
3867;SDS011;1949;48.152;11.528;2024-01-11T07:43:52;27.80;;;9.27;;
3867;SDS011;1949;48.152;11.528;2024-01-11T07:46:26;31.50;;;10.43;;
3867;SDS011;1949;48.152;11.528;2024-01-11T07:48:53;29.80;;;9.80;;
3867;SDS011;1949;48.152;11.528;2024-01-11T07:51:19;24.20;;;8.80;;
3867;SDS011;1949;48.152;11.528;2024-01-11T07:53:46;20.83;;;8.37;;
3867;SDS011;1949;48.152;11.528;2024-01-11T07:56:12;26.63;;;9.33;;
3867;SDS011;1949;48.152;11.528;2024-01-11T07:58:39;23.53;;;8.93;;
3867;SDS011;1949;48.152;11.528;2024-01-11T08:01:06;24.73;;;8.53;;
3867;SDS011;1949;48.152;11.528;2024-01-11T08:03:34;25.17;;;9.47;;
3867;SDS011;1949;48.152;11.528;2024-01-11T08:06:00;28.97;;;9.73;;
3867;SDS011;1949;48.152;11.528;2024-01-11T08:08:26;22.57;;;8.83;;
3867;SDS011;1949;48.152;11.528;2024-01-11T08:10:53;22.83;;;9.37;;
3867;SDS011;1949;48.152;11.528;2024-01-11T08:13:24;23.33;;;9.03;;
3867;SDS011;1949;48.152;11.528;2024-01-11T08:15:50;36.70;;;10.13;;
3867;SDS011;1949;48.152;11.528;2024-01-11T08:18:26;26.13;;;8.93;;
3867;SDS011;1949;48.152;11.528;2024-01-11T08:20:52;38.63;;;10.33;;
3867;SDS011;1949;48.152;11.528;2024-01-11T08:23:18;34.03;;;9.77;;
3867;SDS011;1949;48.152;11.528;2024-01-11T08:25:49;46.07;;;15.77;;
3867;SDS011;1949;48.152;11.528;2024-01-11T08:28:19;25.00;;;9.77;;
3867;SDS011;1949;48.152;11.528;2024-01-11T08:30:51;30.27;;;11.40;;
3867;SDS011;1949;48.152;11.528;2024-01-11T08:33:22;28.70;;;10.63;;
3867;SDS011;1949;48.152;11.528;2024-01-11T08:35:48;30.20;;;10.10;;
3867;SDS011;1949;48.152;11.528;2024-01-11T08:38:23;28.60;;;9.80;;
3867;SDS011;1949;48.152;11.528;2024-01-11T08:40:49;29.73;;;9.80;;
3867;SDS011;1949;48.152;11.528;2024-01-11T08:43:16;21.40;;;9.17;;
3867;SDS011;1949;48.152;11.528;2024-01-11T08:45:42;24.60;;;9.23;;
3867;SDS011;1949;48.152;11.528;2024-01-11T08:48:08;28.43;;;9.93;;
3867;SDS011;1949;48.152;11.528;2024-01-11T08:50:35;31.97;;;10.53;;
3867;SDS011;1949;48.152;11.528;2024-01-11T08:53:00;28.47;;;10.20;;
3867;SDS011;1949;48.152;11.528;2024-01-11T08:55:28;32.80;;;11.90;;
3867;SDS011;1949;48.152;11.528;2024-01-11T08:57:54;35.97;;;11.67;;
3867;SDS011;1949;48.152;11.528;2024-01-11T09:00:20;39.17;;;13.67;;
3867;SDS011;1949;48.152;11.528;2024-01-11T09:02:46;43.03;;;14.10;;
3867;SDS011;1949;48.152;11.528;2024-01-11T09:05:13;62.87;;;22.07;;
3867;SDS011;1949;48.152;11.528;2024-01-11T09:07:39;64.53;;;19.00;;
3867;SDS011;1949;48.152;11.528;2024-01-11T09:10:07;55.30;;;17.00;;
3867;SDS011;1949;48.152;11.528;2024-01-11T09:12:34;54.73;;;18.10;;
3867;SDS011;1949;48.152;11.528;2024-01-11T09:15:00;50.50;;;17.43;;
3867;SDS011;1949;48.152;11.528;2024-01-11T09:17:26;52.67;;;18.27;;
3867;SDS011;1949;48.152;11.528;2024-01-11T09:19:51;56.93;;;18.97;;
3867;SDS011;1949;48.152;11.528;2024-01-11T09:22:17;54.70;;;18.13;;
3867;SDS011;1949;48.152;11.528;2024-01-11T09:27:12;61.87;;;18.70;;
3867;SDS011;1949;48.152;11.528;2024-01-11T09:29:44;59.43;;;19.67;;
3867;SDS011;1949;48.152;11.528;2024-01-11T09:32:11;56.20;;;18.97;;
3867;SDS011;1949;48.152;11.528;2024-01-11T09:34:38;61.10;;;19.50;;
3867;SDS011;1949;48.152;11.528;2024-01-11T09:37:04;48.57;;;18.10;;
3867;SDS011;1949;48.152;11.528;2024-01-11T09:39:30;54.73;;;18.20;;
3867;SDS011;1949;48.152;11.528;2024-01-11T09:41:58;51.90;;;16.63;;
3867;SDS011;1949;48.152;11.528;2024-01-11T09:44:28;54.47;;;14.60;;
3867;SDS011;1949;48.152;11.528;2024-01-11T09:46:55;49.50;;;16.70;;
3867;SDS011;1949;48.152;11.528;2024-01-11T09:49:23;59.57;;;17.33;;
3867;SDS011;1949;48.152;11.528;2024-01-11T09:51:51;58.37;;;15.67;;
3867;SDS011;1949;48.152;11.528;2024-01-11T09:54:18;62.57;;;16.80;;
3867;SDS011;1949;48.152;11.528;2024-01-11T09:56:54;53.70;;;17.07;;
3867;SDS011;1949;48.152;11.528;2024-01-11T09:59:23;42.73;;;14.90;;
3867;SDS011;1949;48.152;11.528;2024-01-11T10:01:50;50.07;;;15.20;;
3867;SDS011;1949;48.152;11.528;2024-01-11T10:04:17;60.27;;;16.30;;
3867;SDS011;1949;48.152;11.528;2024-01-11T10:06:45;43.30;;;15.30;;
3867;SDS011;1949;48.152;11.528;2024-01-11T10:09:12;46.17;;;15.40;;
3867;SDS011;1949;48.152;11.528;2024-01-11T10:11:38;48.83;;;15.40;;
3867;SDS011;1949;48.152;11.528;2024-01-11T10:14:06;45.97;;;15.87;;
3867;SDS011;1949;48.152;11.528;2024-01-11T10:16:33;48.60;;;13.93;;
3867;SDS011;1949;48.152;11.528;2024-01-11T10:18:58;42.37;;;15.00;;
3867;SDS011;1949;48.152;11.528;2024-01-11T10:21:24;46.10;;;15.87;;
3867;SDS011;1949;48.152;11.528;2024-01-11T10:26:22;53.17;;;15.00;;
3867;SDS011;1949;48.152;11.528;2024-01-11T10:28:49;47.40;;;14.80;;
3867;SDS011;1949;48.152;11.528;2024-01-11T10:31:17;63.77;;;21.07;;
3867;SDS011;1949;48.152;11.528;2024-01-11T10:33:43;56.70;;;18.60;;
3867;SDS011;1949;48.152;11.528;2024-01-11T10:36:11;52.30;;;16.27;;
3867;SDS011;1949;48.152;11.528;2024-01-11T10:38:38;66.07;;;21.27;;
3867;SDS011;1949;48.152;11.528;2024-01-11T10:41:07;57.03;;;17.37;;
3867;SDS011;1949;48.152;11.528;2024-01-11T10:43:37;56.20;;;16.80;;
3867;SDS011;1949;48.152;11.528;2024-01-11T10:46:05;46.53;;;14.97;;
3867;SDS011;1949;48.152;11.528;2024-01-11T10:48:39;47.40;;;14.47;;
3867;SDS011;1949;48.152;11.528;2024-01-11T10:51:08;54.23;;;17.37;;
3867;SDS011;1949;48.152;11.528;2024-01-11T10:53:47;59.63;;;16.67;;
3867;SDS011;1949;48.152;11.528;2024-01-11T10:56:16;46.27;;;15.73;;
3867;SDS011;1949;48.152;11.528;2024-01-11T10:58:42;46.63;;;16.23;;
3867;SDS011;1949;48.152;11.528;2024-01-11T11:01:11;44.60;;;14.50;;
3867;SDS011;1949;48.152;11.528;2024-01-11T11:03:38;54.70;;;17.17;;
3867;SDS011;1949;48.152;11.528;2024-01-11T11:06:07;49.67;;;16.20;;
3867;SDS011;1949;48.152;11.528;2024-01-11T11:08:36;46.27;;;15.43;;
3867;SDS011;1949;48.152;11.528;2024-01-11T11:11:02;47.20;;;15.80;;
3867;SDS011;1949;48.152;11.528;2024-01-11T11:13:33;57.80;;;17.40;;
3867;SDS011;1949;48.152;11.528;2024-01-11T11:16:03;84.37;;;26.23;;
3867;SDS011;1949;48.152;11.528;2024-01-11T11:18:29;113.23;;;34.97;;
3867;SDS011;1949;48.152;11.528;2024-01-11T11:20:56;55.33;;;18.90;;
3867;SDS011;1949;48.152;11.528;2024-01-11T11:23:23;54.83;;;16.13;;
3867;SDS011;1949;48.152;11.528;2024-01-11T11:25:53;41.87;;;14.00;;
3867;SDS011;1949;48.152;11.528;2024-01-11T11:28:21;49.83;;;15.90;;
3867;SDS011;1949;48.152;11.528;2024-01-11T11:30:56;50.63;;;15.20;;
3867;SDS011;1949;48.152;11.528;2024-01-11T11:33:30;44.63;;;15.50;;
3867;SDS011;1949;48.152;11.528;2024-01-11T11:35:57;42.93;;;14.27;;
3867;SDS011;1949;48.152;11.528;2024-01-11T11:38:26;48.43;;;13.87;;
3867;SDS011;1949;48.152;11.528;2024-01-11T11:41:00;44.33;;;16.53;;
3867;SDS011;1949;48.152;11.528;2024-01-11T11:43:27;38.43;;;12.70;;
3867;SDS011;1949;48.152;11.528;2024-01-11T11:45:54;50.83;;;15.50;;
3867;SDS011;1949;48.152;11.528;2024-01-11T11:49:08;52.07;;;15.53;;
3867;SDS011;1949;48.152;11.528;2024-01-11T11:53:57;44.43;;;14.17;;
3867;SDS011;1949;48.152;11.528;2024-01-11T11:56:23;51.73;;;15.20;;
3867;SDS011;1949;48.152;11.528;2024-01-11T11:58:49;46.27;;;14.83;;
3867;SDS011;1949;48.152;11.528;2024-01-11T12:01:18;44.63;;;13.27;;
3867;SDS011;1949;48.152;11.528;2024-01-11T12:03:45;36.83;;;14.00;;
3867;SDS011;1949;48.152;11.528;2024-01-11T12:06:14;40.67;;;12.80;;
3867;SDS011;1949;48.152;11.528;2024-01-11T12:08:42;37.50;;;13.63;;
3867;SDS011;1949;48.152;11.528;2024-01-11T12:11:09;49.40;;;14.20;;
3867;SDS011;1949;48.152;11.528;2024-01-11T12:13:38;43.87;;;13.90;;
3867;SDS011;1949;48.152;11.528;2024-01-11T12:16:07;48.90;;;16.47;;
3867;SDS011;1949;48.152;11.528;2024-01-11T12:18:33;43.30;;;13.73;;
3867;SDS011;1949;48.152;11.528;2024-01-11T12:20:58;41.80;;;14.30;;
3867;SDS011;1949;48.152;11.528;2024-01-11T12:28:38;39.10;;;14.20;;
3867;SDS011;1949;48.152;11.528;2024-01-11T12:31:05;50.17;;;14.40;;
3867;SDS011;1949;48.152;11.528;2024-01-11T12:33:30;48.23;;;15.40;;
3867;SDS011;1949;48.152;11.528;2024-01-11T12:35:59;44.33;;;12.60;;
3867;SDS011;1949;48.152;11.528;2024-01-11T12:38:25;45.87;;;14.20;;
3867;SDS011;1949;48.152;11.528;2024-01-11T12:40:52;34.97;;;13.50;;
3867;SDS011;1949;48.152;11.528;2024-01-11T12:43:20;36.57;;;13.87;;
3867;SDS011;1949;48.152;11.528;2024-01-11T12:45:46;45.07;;;14.43;;
3867;SDS011;1949;48.152;11.528;2024-01-11T12:48:12;50.30;;;15.27;;
3867;SDS011;1949;48.152;11.528;2024-01-11T12:50:44;53.47;;;16.90;;
3867;SDS011;1949;48.152;11.528;2024-01-11T12:53:11;43.33;;;14.20;;
3867;SDS011;1949;48.152;11.528;2024-01-11T12:55:44;41.93;;;14.03;;
3867;SDS011;1949;48.152;11.528;2024-01-11T12:58:10;44.10;;;13.03;;
3867;SDS011;1949;48.152;11.528;2024-01-11T13:00:39;34.77;;;13.60;;
3867;SDS011;1949;48.152;11.528;2024-01-11T13:03:05;47.77;;;15.30;;
3867;SDS011;1949;48.152;11.528;2024-01-11T13:05:37;48.40;;;14.50;;
3867;SDS011;1949;48.152;11.528;2024-01-11T13:08:10;43.13;;;14.50;;
3867;SDS011;1949;48.152;11.528;2024-01-11T13:10:37;38.77;;;13.70;;
3867;SDS011;1949;48.152;11.528;2024-01-11T13:13:03;35.10;;;12.57;;
3867;SDS011;1949;48.152;11.528;2024-01-11T13:15:30;39.23;;;14.63;;
3867;SDS011;1949;48.152;11.528;2024-01-11T13:17:58;51.17;;;15.67;;
3867;SDS011;1949;48.152;11.528;2024-01-11T13:20:26;49.47;;;15.13;;
3867;SDS011;1949;48.152;11.528;2024-01-11T13:23:10;42.73;;;14.70;;
3867;SDS011;1949;48.152;11.528;2024-01-11T13:25:45;46.77;;;13.90;;
3867;SDS011;1949;48.152;11.528;2024-01-11T13:28:13;46.30;;;15.90;;
3867;SDS011;1949;48.152;11.528;2024-01-11T13:30:39;49.37;;;14.20;;
3867;SDS011;1949;48.152;11.528;2024-01-11T13:33:09;51.17;;;15.10;;
3867;SDS011;1949;48.152;11.528;2024-01-11T13:35:41;44.50;;;15.00;;
3867;SDS011;1949;48.152;11.528;2024-01-11T13:38:10;42.50;;;14.70;;
3867;SDS011;1949;48.152;11.528;2024-01-11T13:40:36;52.07;;;15.93;;
3867;SDS011;1949;48.152;11.528;2024-01-11T13:45:34;43.17;;;15.33;;
3867;SDS011;1949;48.152;11.528;2024-01-11T13:48:01;45.80;;;15.50;;
3867;SDS011;1949;48.152;11.528;2024-01-11T13:50:28;51.60;;;16.00;;
3867;SDS011;1949;48.152;11.528;2024-01-11T13:52:55;50.30;;;17.20;;
3867;SDS011;1949;48.152;11.528;2024-01-11T13:55:22;43.40;;;15.80;;
3867;SDS011;1949;48.152;11.528;2024-01-11T13:57:49;52.37;;;16.10;;
3867;SDS011;1949;48.152;11.528;2024-01-11T14:00:16;59.47;;;17.27;;
3867;SDS011;1949;48.152;11.528;2024-01-11T14:02:43;45.13;;;14.33;;
3867;SDS011;1949;48.152;11.528;2024-01-11T14:05:15;53.90;;;16.27;;
3867;SDS011;1949;48.152;11.528;2024-01-11T14:07:42;44.63;;;16.30;;
3867;SDS011;1949;48.152;11.528;2024-01-11T14:10:14;42.33;;;14.83;;
3867;SDS011;1949;48.152;11.528;2024-01-11T14:12:40;60.20;;;16.70;;
3867;SDS011;1949;48.152;11.528;2024-01-11T14:15:07;50.37;;;17.20;;
3867;SDS011;1949;48.152;11.528;2024-01-11T14:17:37;51.97;;;15.27;;
3867;SDS011;1949;48.152;11.528;2024-01-11T14:20:03;48.53;;;16.17;;
3867;SDS011;1949;48.152;11.528;2024-01-11T14:22:32;51.73;;;17.00;;
3867;SDS011;1949;48.152;11.528;2024-01-11T14:24:58;48.40;;;14.70;;
3867;SDS011;1949;48.152;11.528;2024-01-11T14:27:23;41.37;;;14.87;;
3867;SDS011;1949;48.152;11.528;2024-01-11T14:29:51;43.63;;;14.77;;
3867;SDS011;1949;48.152;11.528;2024-01-11T14:32:17;38.23;;;15.83;;
3867;SDS011;1949;48.152;11.528;2024-01-11T14:34:43;41.67;;;13.60;;
3867;SDS011;1949;48.152;11.528;2024-01-11T14:37:12;50.57;;;15.93;;
3867;SDS011;1949;48.152;11.528;2024-01-11T14:39:39;52.63;;;17.27;;
3867;SDS011;1949;48.152;11.528;2024-01-11T14:42:05;55.10;;;16.63;;
3867;SDS011;1949;48.152;11.528;2024-01-11T14:44:34;52.60;;;16.37;;
3867;SDS011;1949;48.152;11.528;2024-01-11T14:47:01;48.77;;;16.03;;
3867;SDS011;1949;48.152;11.528;2024-01-11T14:49:27;40.63;;;14.40;;
3867;SDS011;1949;48.152;11.528;2024-01-11T14:51:54;52.07;;;15.87;;
3867;SDS011;1949;48.152;11.528;2024-01-11T14:54:21;47.30;;;16.10;;
3867;SDS011;1949;48.152;11.528;2024-01-11T14:56:48;53.10;;;15.80;;
3867;SDS011;1949;48.152;11.528;2024-01-11T14:59:13;44.57;;;16.03;;
3867;SDS011;1949;48.152;11.528;2024-01-11T15:01:40;55.57;;;17.03;;
3867;SDS011;1949;48.152;11.528;2024-01-11T15:04:06;56.50;;;17.00;;
3867;SDS011;1949;48.152;11.528;2024-01-11T15:06:32;66.50;;;17.10;;